Time;durP1;ratioP1;P1;durP2;ratioP2;P2;SDS_P1;SDS_P2;PMS_P1;PMS_P2;Temp;Humidity;BMP_temperature;BMP_pressure;BME280_temperature;BME280_humidity;BME280_pressure;Samples;Min_cycle;Max_cycle;Signal;HPM_P1;HPM_P2
2021/06/23 00:01:00;;;;;;;57.70;38.13;;;14.20;99.90;;;;;;5013469;28;20171;-75
2021/06/23 00:03:26;;;;;;;48.23;35.37;;;14.20;99.90;;;;;;5013086;28;20439;-76
2021/06/23 00:05:51;;;;;;;44.80;37.10;;;14.00;99.90;;;;;;5014996;28;20210;-76
2021/06/23 00:08:17;;;;;;;49.23;33.60;;;14.10;99.90;;;;;;5017436;28;20179;-75
2021/06/23 00:10:43;;;;;;;56.40;35.27;;;14.10;99.90;;;;;;5017212;28;20245;-77
2021/06/23 00:13:09;;;;;;;39.07;32.13;;;14.20;99.90;;;;;;5017070;28;20253;-78
2021/06/23 00:15:36;;;;;;;45.00;35.77;;;14.10;99.90;;;;;;5016101;28;20484;-76
2021/06/23 00:18:04;;;;;;;46.97;31.93;;;14.10;99.90;;;;;;5016135;28;20515;-76
2021/06/23 00:20:30;;;;;;;41.00;33.63;;;14.00;99.90;;;;;;5017101;28;20414;-77
2021/06/23 00:22:55;;;;;;;41.07;32.40;;;13.90;99.90;;;;;;5016891;28;20421;-75
2021/06/23 00:25:22;;;;;;;38.37;32.10;;;14.00;99.90;;;;;;5016987;28;20438;-77
2021/06/23 00:27:48;;;;;;;42.97;32.93;;;14.00;99.90;;;;;;5015966;28;20501;-77
2021/06/23 00:30:14;;;;;;;35.87;30.87;;;14.10;99.90;;;;;;5017100;28;20424;-77
2021/06/23 00:32:42;;;;;;;41.20;31.47;;;14.00;99.90;;;;;;5016913;28;20175;-76
2021/06/23 00:35:09;;;;;;;37.53;32.50;;;13.90;99.90;;;;;;5015338;28;20438;-77
2021/06/23 00:37:34;;;;;;;37.70;29.73;;;14.00;99.90;;;;;;5016779;28;20539;-76
2021/06/23 00:40:00;;;;;;;40.87;31.30;;;14.00;99.90;;;;;;5016805;28;20540;-76
2021/06/23 00:42:26;;;;;;;37.20;29.90;;;14.00;99.90;;;;;;5016836;28;20190;-77
2021/06/23 00:44:52;;;;;;;37.37;29.77;;;14.00;99.90;;;;;;5016289;28;20202;-77
2021/06/23 00:47:17;;;;;;;35.23;28.23;;;14.00;99.90;;;;;;5015560;28;20260;-76
2021/06/23 00:49:43;;;;;;;31.40;28.17;;;13.90;99.90;;;;;;5016713;28;20461;-76
2021/06/23 00:52:09;;;;;;;33.73;27.77;;;13.90;99.90;;;;;;5016893;28;20253;-76
2021/06/23 00:54:35;;;;;;;34.93;27.33;;;14.00;99.90;;;;;;5015092;28;20278;-76
2021/06/23 00:57:06;;;;;;;32.60;27.53;;;13.90;99.90;;;;;;5016506;28;20422;-77
2021/06/23 00:59:33;;;;;;;29.33;26.20;;;13.90;99.90;;;;;;5016505;28;20418;-77
2021/06/23 01:02:01;;;;;;;31.90;27.33;;;13.90;99.90;;;;;;5016687;28;20417;-76
2021/06/23 01:04:27;;;;;;;32.63;27.60;;;13.90;99.90;;;;;;5016411;28;20432;-77
2021/06/23 01:06:53;;;;;;;33.30;26.90;;;13.90;99.90;;;;;;5016704;28;20461;-77
2021/06/23 01:09:21;;;;;;;28.73;24.90;;;13.90;99.90;;;;;;5016543;28;20175;-77
2021/06/23 01:12:24;;;;;;;31.47;26.13;;;13.80;99.90;;;;;;5016356;28;20421;-75
2021/06/23 01:14:54;;;;;;;29.63;26.60;;;13.80;99.90;;;;;;5015845;28;20444;-77
2021/06/23 01:17:23;;;;;;;32.53;25.60;;;13.80;99.90;;;;;;5016299;28;20409;-76
2021/06/23 01:19:56;;;;;;;28.53;24.70;;;13.80;99.90;;;;;;5016169;28;20432;-75
2021/06/23 01:22:23;;;;;;;36.50;26.43;;;13.80;99.90;;;;;;5016193;28;20414;-75
2021/06/23 01:24:49;;;;;;;30.70;23.77;;;13.70;99.90;;;;;;5015672;28;20544;-76
2021/06/23 01:27:15;;;;;;;27.07;24.00;;;13.80;99.90;;;;;;4998458;28;20915;-75
2021/06/23 01:29:40;;;;;;;30.77;25.87;;;13.80;99.90;;;;;;5016053;28;20202;-76
2021/06/23 01:32:08;;;;;;;26.53;23.73;;;13.80;99.90;;;;;;5014803;28;20175;-76
2021/06/23 01:34:34;;;;;;;30.47;24.00;;;13.80;99.90;;;;;;5015548;28;20218;-77
2021/06/23 01:37:00;;;;;;;31.60;25.00;;;13.80;99.90;;;;;;5015726;28;20400;-76
2021/06/23 01:39:25;;;;;;;37.40;24.20;;;13.80;99.90;;;;;;5015790;28;20171;-76
2021/06/23 01:41:51;;;;;;;33.00;25.07;;;13.80;99.90;;;;;;5015811;28;20686;-77
2021/06/23 01:44:17;;;;;;;31.57;23.53;;;13.90;99.90;;;;;;5015306;28;20221;-77
2021/06/23 01:46:42;;;;;;;34.63;23.70;;;13.90;99.90;;;;;;5014294;28;20234;-76
2021/06/23 01:49:09;;;;;;;26.07;23.20;;;13.80;99.90;;;;;;5015582;28;20175;-76
2021/06/23 01:51:34;;;;;;;28.23;25.20;;;13.80;99.90;;;;;;5015481;28;20179;-76
2021/06/23 01:54:00;;;;;;;26.27;23.47;;;13.80;99.90;;;;;;5015545;28;20516;-76
2021/06/23 01:56:28;;;;;;;29.77;23.43;;;13.80;99.90;;;;;;5015652;28;20183;-76
2021/06/23 01:58:54;;;;;;;27.13;23.20;;;13.80;99.90;;;;;;5015688;28;20174;-76
2021/06/23 02:01:46;;;;;;;27.40;23.67;;;13.80;99.90;;;;;;5015362;28;20437;-76
2021/06/23 02:04:24;;;;;;;25.20;22.30;;;13.80;99.90;;;;;;5013875;28;20679;-76
2021/06/23 02:06:49;;;;;;;29.30;22.20;;;13.70;99.90;;;;;;5015388;28;20453;-77
2021/06/23 02:09:42;;;;;;;33.07;24.03;;;13.80;99.90;;;;;;5015264;28;20421;-76
2021/06/23 02:12:26;;;;;;;28.27;22.60;;;13.70;99.90;;;;;;5015310;28;20246;-76
2021/06/23 02:15:02;;;;;;;28.23;22.47;;;13.70;99.90;;;;;;5014685;28;20441;-75
2021/06/23 02:17:30;;;;;;;26.47;21.90;;;13.70;99.90;;;;;;5015085;28;20971;-76
2021/06/23 02:19:58;;;;;;;28.13;25.20;;;13.70;99.90;;;;;;5013883;28;20418;-75
2021/06/23 02:22:26;;;;;;;29.83;24.50;;;13.80;99.90;;;;;;5015023;28;20417;-76
2021/06/23 02:24:55;;;;;;;27.93;24.13;;;13.80;99.90;;;;;;5014500;28;20579;-77
2021/06/23 02:27:22;;;;;;;29.63;22.27;;;13.80;99.90;;;;;;5014890;28;20492;-77
2021/06/23 02:29:50;;;;;;;28.23;22.43;;;13.80;99.90;;;;;;5014170;28;20967;-77
2021/06/23 02:32:18;;;;;;;27.77;23.10;;;13.80;99.90;;;;;;5014854;28;20413;-75
2021/06/23 02:34:50;;;;;;;28.03;22.53;;;13.70;99.90;;;;;;5014433;28;20478;-76
2021/06/23 02:37:16;;;;;;;24.47;21.67;;;13.70;99.90;;;;;;5014836;28;20449;-77
2021/06/23 02:39:42;;;;;;;28.43;23.13;;;13.70;99.90;;;;;;5014520;28;20442;-76
2021/06/23 02:42:09;;;;;;;26.00;22.90;;;13.70;99.90;;;;;;5014484;28;20500;-76
2021/06/23 02:44:34;;;;;;;30.47;24.13;;;13.80;99.90;;;;;;5014244;28;20438;-75
2021/06/23 02:47:00;;;;;;;29.83;23.00;;;13.70;99.90;;;;;;5014572;28;20992;-75
2021/06/23 02:49:26;;;;;;;43.13;23.20;;;13.70;99.90;;;;;;5014659;28;20270;-78
2021/06/23 02:51:54;;;;;;;35.73;24.73;;;13.80;99.90;;;;;;5014552;28;20442;-76
2021/06/23 02:54:21;;;;;;;25.43;22.63;;;13.70;99.90;;;;;;5014092;28;20245;-75
2021/06/23 02:56:47;;;;;;;27.70;24.70;;;13.80;99.90;;;;;;5014544;28;20413;-76
2021/06/23 02:59:14;;;;;;;27.97;22.87;;;13.70;99.90;;;;;;5013305;28;20418;-77
2021/06/23 03:01:39;;;;;;;29.90;24.60;;;13.70;99.90;;;;;;5014349;28;20790;-76
2021/06/23 03:04:05;;;;;;;30.30;24.87;;;13.80;99.90;;;;;;5012663;28;20433;-76
2021/06/23 03:06:31;;;;;;;31.13;23.70;;;13.80;99.90;;;;;;5014329;28;20458;-76
2021/06/23 03:08:57;;;;;;;26.93;21.47;;;13.70;99.90;;;;;;5014112;28;20789;-77
2021/06/23 03:11:22;;;;;;;33.77;23.90;;;13.70;99.90;;;;;;5013126;28;20175;-76
2021/06/23 03:13:48;;;;;;;36.57;25.23;;;13.80;99.90;;;;;;5013596;28;20210;-76
2021/06/23 03:16:13;;;;;;;29.10;24.20;;;13.70;99.90;;;;;;5013054;28;20178;-75
2021/06/23 03:18:39;;;;;;;31.33;24.67;;;13.70;99.90;;;;;;5014301;28;20171;-75
2021/06/23 03:21:07;;;;;;;35.63;22.37;;;13.70;99.90;;;;;;5014092;28;20179;-74
2021/06/23 03:23:33;;;;;;;28.90;25.90;;;13.50;99.90;;;;;;5012342;28;20430;-75
2021/06/23 03:25:59;;;;;;;26.57;23.77;;;13.50;99.90;;;;;;5013856;28;20877;-77
2021/06/23 03:28:25;;;;;;;36.23;25.10;;;13.50;99.90;;;;;;5013892;28;20501;-75
2021/06/23 03:30:51;;;;;;;31.70;26.40;;;13.50;99.90;;;;;;5013757;28;20800;-75
2021/06/23 03:33:17;;;;;;;32.40;25.77;;;13.60;99.90;;;;;;5013415;28;20448;-74
2021/06/23 03:35:43;;;;;;;31.53;26.30;;;13.50;99.90;;;;;;5013576;28;20360;-74
2021/06/23 03:38:09;;;;;;;31.97;27.17;;;13.50;99.90;;;;;;5013514;28;20410;-76
2021/06/23 03:40:34;;;;;;;38.90;28.97;;;13.50;99.90;;;;;;5011527;28;20437;-75
2021/06/23 03:43:00;;;;;;;41.63;27.50;;;13.50;99.90;;;;;;5013337;28;20206;-76
2021/06/23 03:45:26;;;;;;;40.00;30.10;;;13.50;99.90;;;;;;5013438;28;20198;-77
2021/06/23 03:47:51;;;;;;;41.03;27.23;;;13.50;99.90;;;;;;5013527;28;20205;-75
2021/06/23 03:50:18;;;;;;;34.07;26.57;;;13.50;99.90;;;;;;5013366;28;20266;-76
2021/06/23 03:52:45;;;;;;;37.30;27.77;;;13.50;99.90;;;;;;5013220;28;20178;-76
2021/06/23 03:55:25;;;;;;;35.17;28.70;;;13.50;99.90;;;;;;5013525;28;20802;-76
2021/06/23 03:57:53;;;;;;;38.73;28.40;;;13.50;99.90;;;;;;5012240;28;20930;-77
2021/06/23 04:00:21;;;;;;;33.33;28.30;;;13.40;99.90;;;;;;5013542;28;20504;-76
2021/06/23 04:02:46;;;;;;;38.63;28.13;;;13.50;99.90;;;;;;5013243;28;20418;-75
2021/06/23 04:05:13;;;;;;;31.33;27.87;;;13.60;99.90;;;;;;5013386;28;20445;-75
2021/06/23 04:07:39;;;;;;;34.80;27.30;;;13.60;99.90;;;;;;5013466;28;20249;-76
2021/06/23 04:10:06;;;;;;;29.90;25.97;;;13.50;99.90;;;;;;5013630;28;20449;-76
2021/06/23 04:12:32;;;;;;;30.20;27.00;;;13.60;99.90;;;;;;5013125;28;20424;-77
2021/06/23 04:14:58;;;;;;;29.73;26.53;;;13.60;99.90;;;;;;5012852;28;20544;-76
2021/06/23 04:17:23;;;;;;;36.77;25.20;;;13.60;99.90;;;;;;5013425;28;20179;-75
2021/06/23 04:19:49;;;;;;;37.80;26.13;;;13.60;99.90;;;;;;5013165;28;20460;-76
2021/06/23 04:22:15;;;;;;;32.40;25.30;;;13.60;99.90;;;;;;5013184;28;20185;-77
2021/06/23 04:24:41;;;;;;;38.40;28.73;;;13.60;99.90;;;;;;5012794;28;20202;-76
2021/06/23 04:27:07;;;;;;;32.77;27.97;;;13.60;99.90;;;;;;5013313;28;20515;-75
2021/06/23 04:29:32;;;;;;;28.60;25.50;;;13.60;99.90;;;;;;5012010;28;20190;-74
2021/06/23 04:31:58;;;;;;;34.63;26.67;;;13.60;99.90;;;;;;5013001;28;20773;-76
2021/06/23 04:34:24;;;;;;;31.93;26.53;;;13.70;99.90;;;;;;5012556;28;20202;-74
2021/06/23 04:36:49;;;;;;;35.43;26.80;;;13.70;99.90;;;;;;5013001;28;20217;-74
2021/06/23 04:39:15;;;;;;;32.03;25.90;;;13.70;99.90;;;;;;5013285;28;20203;-75
2021/06/23 04:41:40;;;;;;;35.87;27.00;;;13.70;99.90;;;;;;5013040;28;20543;-76
2021/06/23 04:44:06;;;;;;;35.37;27.77;;;13.80;99.90;;;;;;5012638;28;20209;-76
2021/06/23 04:46:33;;;;;;;34.90;26.47;;;13.80;99.90;;;;;;5011557;28;20214;-75
2021/06/23 04:48:59;;;;;;;33.50;26.80;;;13.70;99.90;;;;;;5012927;28;20266;-77
2021/06/23 04:51:25;;;;;;;29.90;26.67;;;13.70;99.90;;;;;;5013929;28;20811;-75
2021/06/23 04:53:51;;;;;;;37.70;24.87;;;13.70;99.90;;;;;;5016370;28;20416;-76
2021/06/23 04:56:17;;;;;;;33.90;26.13;;;13.70;99.90;;;;;;5016703;28;20244;-77
2021/06/23 04:58:42;;;;;;;30.50;25.73;;;13.70;99.90;;;;;;5016525;28;20710;-78
2021/06/23 05:01:08;;;;;;;37.37;26.70;;;13.70;99.90;;;;;;5016335;28;20254;-78
2021/06/23 05:03:33;;;;;;;30.77;27.50;;;13.80;99.90;;;;;;5016085;28;20533;-76
2021/06/23 05:06:00;;;;;;;31.63;25.00;;;13.70;99.90;;;;;;5016504;28;20237;-76
2021/06/23 05:08:27;;;;;;;34.07;27.90;;;13.70;99.90;;;;;;5016366;28;20167;-75
2021/06/23 05:10:52;;;;;;;39.57;26.67;;;13.80;99.90;;;;;;5015981;28;20415;-76
2021/06/23 05:13:18;;;;;;;36.63;26.53;;;13.80;99.90;;;;;;5015811;28;20414;-76
2021/06/23 05:15:44;;;;;;;35.30;26.13;;;13.90;99.90;;;;;;5016411;28;20261;-75
2021/06/23 05:18:10;;;;;;;34.27;25.60;;;13.60;99.90;;;;;;5016311;28;20257;-76
2021/06/23 05:20:36;;;;;;;28.33;25.27;;;13.60;99.90;;;;;;5016269;28;20918;-76
2021/06/23 05:23:02;;;;;;;31.70;26.87;;;13.70;99.90;;;;;;5015746;28;20564;-76
2021/06/23 05:25:28;;;;;;;35.30;25.70;;;13.80;99.90;;;;;;5015897;28;20874;-74
2021/06/23 05:27:54;;;;;;;38.30;27.40;;;13.80;99.90;;;;;;5016165;28;20424;-74
2021/06/23 05:30:20;;;;;;;34.60;27.27;;;13.80;99.90;;;;;;5016050;28;20256;-74
2021/06/23 05:32:46;;;;;;;37.90;26.17;;;13.90;99.90;;;;;;5014241;28;20186;-75
2021/06/23 05:35:12;;;;;;;37.27;26.20;;;13.90;99.90;;;;;;5015539;28;20434;-76
2021/06/23 05:37:38;;;;;;;35.37;27.00;;;14.00;99.90;;;;;;5015862;28;20206;-75
2021/06/23 05:40:04;;;;;;;33.97;26.37;;;14.10;99.90;;;;;;5015866;28;20452;-75
2021/06/23 05:42:30;;;;;;;40.47;27.10;;;14.10;99.90;;;;;;5015496;28;20190;-75
2021/06/23 05:44:56;;;;;;;27.17;24.23;;;14.10;99.90;;;;;;5015121;28;20830;-74
2021/06/23 05:47:22;;;;;;;31.33;25.87;;;14.20;99.90;;;;;;5015387;28;20297;-74
2021/06/23 05:49:47;;;;;;;28.93;25.90;;;14.20;99.90;;;;;;5015619;28;20997;-75
2021/06/23 05:52:13;;;;;;;25.70;23.00;;;14.30;99.90;;;;;;5015551;28;20222;-74
2021/06/23 05:54:39;;;;;;;29.53;24.73;;;14.30;99.90;;;;;;5015074;28;20225;-74
2021/06/23 05:57:04;;;;;;;32.57;24.97;;;14.20;99.90;;;;;;5015520;28;20183;-75
2021/06/23 05:59:31;;;;;;;34.40;25.67;;;14.20;99.90;;;;;;5006045;28;20187;-74
2021/06/23 06:01:57;;;;;;;34.93;25.57;;;14.20;99.90;;;;;;5005097;28;20490;-75
2021/06/23 06:04:22;;;;;;;33.97;25.53;;;14.20;99.90;;;;;;5002949;28;20525;-74
2021/06/23 06:06:48;;;;;;;32.50;23.00;;;14.30;99.90;;;;;;5002865;28;20899;-74
2021/06/23 06:09:14;;;;;;;29.80;25.33;;;14.10;99.90;;;;;;5002747;28;20191;-74
2021/06/23 06:11:40;;;;;;;28.43;23.60;;;14.00;99.90;;;;;;5004557;28;20179;-75
2021/06/23 06:14:05;;;;;;;28.67;24.07;;;14.00;99.90;;;;;;5005447;28;20289;-74
2021/06/23 06:16:32;;;;;;;29.40;23.83;;;14.10;99.90;;;;;;5003412;28;20433;-74
2021/06/23 06:18:58;;;;;;;29.97;25.37;;;14.10;99.90;;;;;;5003304;28;20262;-75
2021/06/23 06:21:24;;;;;;;31.70;24.00;;;14.20;99.90;;;;;;5013698;28;20522;-73
2021/06/23 06:23:50;;;;;;;33.67;25.93;;;14.30;99.90;;;;;;5014369;28;20207;-74
2021/06/23 06:26:15;;;;;;;30.97;25.77;;;14.30;99.90;;;;;;5014887;28;20515;-74
2021/06/23 06:28:41;;;;;;;29.43;26.10;;;14.30;99.90;;;;;;5014784;28;20175;-74
2021/06/23 06:31:07;;;;;;;37.17;26.20;;;14.30;99.90;;;;;;5014900;28;20414;-74
2021/06/23 06:33:33;;;;;;;33.87;25.30;;;14.40;99.90;;;;;;5014192;28;20217;-77
2021/06/23 06:35:59;;;;;;;28.03;25.03;;;14.50;99.90;;;;;;5014731;28;20175;-77
2021/06/23 06:38:24;;;;;;;28.13;24.60;;;14.60;99.90;;;;;;5014793;28;20913;-76
2021/06/23 06:40:50;;;;;;;31.67;25.30;;;14.50;99.90;;;;;;5014602;28;20183;-75
2021/06/23 06:43:16;;;;;;;35.00;23.70;;;14.50;99.90;;;;;;5014246;28;20190;-75
2021/06/23 06:45:41;;;;;;;37.83;24.33;;;14.50;99.90;;;;;;5014286;28;20211;-75
2021/06/23 06:48:07;;;;;;;25.53;22.57;;;14.60;99.90;;;;;;5014943;28;20703;-76
2021/06/23 06:50:33;;;;;;;26.63;23.07;;;14.60;99.90;;;;;;5014463;28;20214;-75
2021/06/23 06:52:59;;;;;;;35.40;24.50;;;14.70;99.90;;;;;;5014149;28;21009;-76
2021/06/23 06:55:25;;;;;;;28.07;24.87;;;14.70;99.90;;;;;;5013050;28;20659;-75
2021/06/23 06:57:52;;;;;;;33.80;24.80;;;14.70;99.90;;;;;;5014185;28;20175;-75
2021/06/23 07:00:19;;;;;;;31.60;24.83;;;14.70;99.90;;;;;;5014427;28;20501;-74
2021/06/23 07:02:46;;;;;;;30.33;23.53;;;14.70;99.90;;;;;;5014081;28;20412;-76
2021/06/23 07:05:12;;;;;;;27.50;24.27;;;14.70;99.90;;;;;;5014262;28;20434;-75
2021/06/23 07:07:37;;;;;;;27.33;22.77;;;14.60;99.90;;;;;;5014153;28;20471;-76
2021/06/23 07:10:04;;;;;;;31.23;22.60;;;14.70;99.90;;;;;;5012877;28;20433;-75
2021/06/23 07:12:31;;;;;;;31.93;22.97;;;14.60;99.90;;;;;;5014099;28;20226;-74
2021/06/23 07:14:56;;;;;;;27.47;22.37;;;14.60;99.90;;;;;;5013571;28;20496;-74
2021/06/23 07:17:22;;;;;;;30.93;25.90;;;14.70;99.90;;;;;;5014151;28;20453;-74
2021/06/23 07:19:48;;;;;;;25.30;22.70;;;14.70;99.90;;;;;;5013062;28;20175;-74
2021/06/23 07:22:13;;;;;;;34.60;23.77;;;14.70;99.90;;;;;;5014030;28;20179;-76
2021/06/23 07:24:39;;;;;;;28.90;23.70;;;14.70;99.90;;;;;;5013725;28;20202;-75
2021/06/23 07:27:05;;;;;;;32.83;23.10;;;14.80;99.90;;;;;;5013995;28;20213;-75
2021/06/23 07:29:31;;;;;;;28.57;23.60;;;15.00;99.90;;;;;;5013964;28;20202;-76
2021/06/23 07:32:02;;;;;;;28.10;22.10;;;15.10;99.90;;;;;;5013678;28;20500;-76
2021/06/23 07:37:07;;;;;;;29.90;23.80;;;15.10;99.90;;;;;;5013789;28;20458;-75
2021/06/23 07:39:35;;;;;;;27.60;23.37;;;15.30;99.90;;;;;;5013727;28;20417;-75
2021/06/23 07:42:02;;;;;;;21.77;19.50;;;15.30;99.90;;;;;;5013466;28;20939;-74
2021/06/23 07:44:34;;;;;;;27.43;22.50;;;15.10;99.90;;;;;;5013226;28;20913;-74
2021/06/23 07:47:01;;;;;;;24.57;22.03;;;15.20;99.90;;;;;;5013560;28;20464;-74
2021/06/23 07:49:30;;;;;;;27.27;20.80;;;15.30;99.90;;;;;;5013619;28;20933;-74
2021/06/23 08:01:20;;;;;;;27.80;21.03;;;15.40;99.90;;;;;;5013708;28;20420;-74
2021/06/23 08:10:37;;;;;;;23.73;19.40;;;15.50;99.90;;;;;;5013452;28;20399;-75
2021/06/23 08:13:06;;;;;;;24.67;20.23;;;15.60;99.90;;;;;;5013229;28;20408;-76
2021/06/23 08:15:35;;;;;;;23.40;18.73;;;15.50;99.90;;;;;;5013364;28;20453;-75
2021/06/23 08:18:01;;;;;;;26.50;18.20;;;15.40;99.90;;;;;;5013410;28;20417;-75
2021/06/23 08:20:28;;;;;;;25.00;20.20;;;15.60;99.90;;;;;;5013295;28;20907;-73
2021/06/23 08:22:54;;;;;;;24.33;18.73;;;15.70;99.90;;;;;;5012944;28;20409;-75
2021/06/23 08:25:21;;;;;;;31.17;17.90;;;15.80;99.90;;;;;;5013076;28;20409;-76
2021/06/23 08:27:48;;;;;;;22.23;18.60;;;15.80;99.90;;;;;;5016500;28;20470;-75
2021/06/23 08:30:14;;;;;;;21.00;17.97;;;16.00;99.90;;;;;;5017238;28;20486;-75
2021/06/23 08:32:40;;;;;;;20.87;17.73;;;16.00;99.90;;;;;;5015496;28;20508;-76
2021/06/23 08:35:08;;;;;;;20.67;17.13;;;16.00;99.90;;;;;;5016786;28;20442;-75
2021/06/23 08:37:33;;;;;;;19.97;17.87;;;16.00;99.90;;;;;;5015712;28;20938;-76
2021/06/23 08:39:59;;;;;;;20.00;17.70;;;15.90;99.90;;;;;;5016974;28;20425;-75
2021/06/23 08:42:25;;;;;;;20.93;18.10;;;15.70;99.90;;;;;;5016804;28;20206;-76
2021/06/23 08:44:52;;;;;;;19.27;17.27;;;15.70;99.90;;;;;;5016444;28;20528;-74
2021/06/23 08:47:18;;;;;;;22.80;17.87;;;15.70;99.90;;;;;;5016841;28;20457;-75
2021/06/23 08:49:45;;;;;;;18.53;16.43;;;15.80;99.90;;;;;;5016656;28;20420;-75
2021/06/23 08:52:12;;;;;;;24.57;18.37;;;15.80;99.90;;;;;;5016745;28;20501;-74
2021/06/23 08:54:40;;;;;;;28.23;18.43;;;15.80;99.90;;;;;;5016125;28;20447;-75
2021/06/23 08:57:07;;;;;;;21.17;17.37;;;15.90;99.90;;;;;;5016837;28;20425;-75
2021/06/23 08:59:33;;;;;;;20.83;17.47;;;15.80;99.90;;;;;;5016660;28;20505;-75
2021/06/23 09:01:59;;;;;;;25.20;19.50;;;15.60;99.90;;;;;;5016903;28;20873;-75
2021/06/23 09:04:25;;;;;;;22.93;19.70;;;15.70;99.90;;;;;;5016328;28;20445;-75
2021/06/23 09:06:52;;;;;;;27.80;21.47;;;15.80;99.90;;;;;;5016568;28;20432;-76
2021/06/23 09:09:25;;;;;;;29.37;19.60;;;15.80;99.90;;;;;;5016445;28;20422;-75
2021/06/23 09:11:55;;;;;;;26.30;22.00;;;15.90;99.90;;;;;;5016472;28;20406;-75
2021/06/23 09:14:22;;;;;;;29.20;21.33;;;16.00;99.90;;;;;;5015938;28;20423;-75
2021/06/23 09:17:08;;;;;;;23.33;19.30;;;16.10;99.90;;;;;;5014892;28;20446;-75
2021/06/23 09:19:39;;;;;;;22.43;19.70;;;16.10;99.90;;;;;;5016234;28;20384;-75
2021/06/23 09:22:25;;;;;;;23.70;20.63;;;16.20;99.90;;;;;;5016339;28;20402;-74
2021/06/23 09:24:51;;;;;;;25.60;20.97;;;16.30;99.90;;;;;;5014589;28;20432;-75
2021/06/23 09:27:19;;;;;;;21.40;19.20;;;16.50;99.90;;;;;;5016068;28;20420;-75
2021/06/23 09:29:44;;;;;;;26.33;18.07;;;16.40;99.90;;;;;;5015990;28;20533;-75
2021/06/23 09:32:10;;;;;;;25.10;18.07;;;16.50;99.90;;;;;;5014888;28;20408;-74
2021/06/23 09:34:47;;;;;;;24.23;18.33;;;16.40;99.90;;;;;;5015588;28;20191;-74
2021/06/23 09:37:25;;;;;;;21.20;17.33;;;16.40;99.90;;;;;;5015512;28;20181;-73
2021/06/23 09:40:09;;;;;;;23.47;17.60;;;16.80;99.90;;;;;;5015409;28;20389;-74
2021/06/23 09:42:46;;;;;;;20.57;16.23;;;17.10;99.90;;;;;;5015789;28;20404;-74
2021/06/23 09:45:15;;;;;;;20.33;18.27;;;17.10;99.90;;;;;;5015761;28;20462;-74
2021/06/23 09:47:41;;;;;;;20.40;18.07;;;17.20;99.90;;;;;;5015698;28;20828;-75
2021/06/23 09:50:18;;;;;;;19.70;17.77;;;17.50;99.90;;;;;;5015494;28;20414;-75
2021/06/23 09:52:54;;;;;;;19.87;17.83;;;17.40;99.90;;;;;;5015615;28;20470;-74
2021/06/23 09:55:20;;;;;;;19.30;16.10;;;17.60;99.90;;;;;;5015930;28;20916;-73
2021/06/23 09:58:06;;;;;;;19.10;15.87;;;17.90;99.90;;;;;;5015472;28;20414;-74
2021/06/23 10:00:34;;;;;;;21.10;15.80;;;18.30;99.90;;;;;;5015756;28;20779;-76
2021/06/23 10:03:03;;;;;;;17.80;15.57;;;18.30;99.90;;;;;;5015218;28;20392;-76
2021/06/23 10:05:29;;;;;;;23.17;16.83;;;18.30;99.90;;;;;;5015265;28;20518;-75
2021/06/23 10:07:55;;;;;;;21.80;15.60;;;18.10;99.90;;;;;;5015261;28;20512;-76
2021/06/23 10:10:42;;;;;;;21.10;16.93;;;18.30;99.90;;;;;;5018699;28;20187;-76
2021/06/23 10:13:08;;;;;;;18.50;16.60;;;18.20;99.90;;;;;;5013742;28;20238;-75
2021/06/23 10:15:35;;;;;;;21.80;19.50;;;18.10;99.90;;;;;;5015055;28;20515;-76
2021/06/23 10:18:02;;;;;;;19.77;17.87;;;17.90;99.90;;;;;;5013909;28;20185;-75
2021/06/23 10:20:28;;;;;;;23.93;17.10;;;17.80;99.90;;;;;;5015279;28;20785;-76
2021/06/23 10:22:54;;;;;;;19.57;17.70;;;17.90;99.90;;;;;;5014839;28;20392;-76
2021/06/23 10:25:20;;;;;;;22.43;17.70;;;17.90;99.90;;;;;;5014877;28;20201;-75
2021/06/23 10:27:49;;;;;;;20.60;18.40;;;18.20;99.90;;;;;;5014938;28;20523;-76
2021/06/23 10:30:17;;;;;;;23.57;19.87;;;18.20;99.90;;;;;;5015032;28;20658;-76
2021/06/23 10:32:43;;;;;;;19.97;17.80;;;18.10;99.90;;;;;;5014750;28;20450;-75
2021/06/23 10:35:10;;;;;;;21.17;18.90;;;17.80;99.90;;;;;;5014609;28;20454;-75
2021/06/23 10:37:39;;;;;;;22.63;19.67;;;17.80;99.90;;;;;;5014489;28;20393;-76
2021/06/23 10:40:11;;;;;;;25.17;21.23;;;17.80;99.90;;;;;;5014830;28;20396;-75
2021/06/23 10:42:37;;;;;;;23.33;21.10;;;17.80;99.90;;;;;;5014838;28;20389;-77
2021/06/23 10:45:04;;;;;;;21.90;19.60;;;17.60;99.90;;;;;;5014448;28;20495;-74
2021/06/23 10:47:42;;;;;;;22.00;17.43;;;17.50;99.90;;;;;;5014243;28;20457;-75
2021/06/23 10:50:10;;;;;;;29.00;21.93;;;17.30;99.90;;;;;;5014289;28;20413;-75
2021/06/23 10:52:41;;;;;;;23.10;20.80;;;17.30;99.90;;;;;;5014473;28;20418;-75
2021/06/23 10:55:13;;;;;;;28.30;21.90;;;17.50;99.90;;;;;;5012883;28;20522;-75
2021/06/23 10:57:44;;;;;;;22.50;19.63;;;17.30;99.90;;;;;;5014148;28;20504;-75
2021/06/23 11:00:20;;;;;;;27.03;20.23;;;17.20;99.90;;;;;;5014243;28;20475;-75
2021/06/23 11:02:51;;;;;;;28.73;21.53;;;17.30;99.90;;;;;;5013777;28;20414;-76
2021/06/23 11:05:22;;;;;;;25.67;21.00;;;17.30;99.90;;;;;;5014489;28;20461;-75
2021/06/23 11:07:49;;;;;;;25.60;20.87;;;17.20;99.90;;;;;;5013911;28;20453;-75
2021/06/23 11:10:18;;;;;;;24.30;21.00;;;17.40;99.90;;;;;;5014099;28;20421;-75
2021/06/23 11:12:43;;;;;;;30.80;20.80;;;17.30;99.90;;;;;;5013636;28;20372;-76
2021/06/23 11:15:16;;;;;;;25.37;20.30;;;17.40;99.90;;;;;;5013845;28;20464;-76
2021/06/23 11:17:43;;;;;;;27.87;19.33;;;17.70;99.90;;;;;;5013861;28;20246;-75
2021/06/23 11:20:21;;;;;;;22.03;19.10;;;18.00;99.90;;;;;;5014002;28;20418;-76
2021/06/23 11:22:51;;;;;;;22.67;19.27;;;18.10;99.90;;;;;;5013538;28;20479;-75
2021/06/23 11:25:34;;;;;;;27.97;19.27;;;18.30;99.90;;;;;;5013855;28;20416;-76
2021/06/23 11:28:09;;;;;;;27.07;21.10;;;18.30;99.90;;;;;;5013753;28;20497;-76
2021/06/23 11:30:51;;;;;;;23.60;17.90;;;18.30;99.90;;;;;;4994365;28;20413;-76
2021/06/23 11:33:29;;;;;;;22.47;17.47;;;17.90;99.90;;;;;;4994042;28;20406;-77
2021/06/23 11:36:04;;;;;;;22.27;18.40;;;17.80;99.90;;;;;;4993984;28;20898;-75
2021/06/23 11:38:32;;;;;;;25.33;17.70;;;18.00;99.90;;;;;;4994327;28;20815;-75
2021/06/23 11:40:59;;;;;;;22.20;18.07;;;18.30;99.90;;;;;;4994168;28;20922;-74
2021/06/23 11:43:25;;;;;;;25.40;16.07;;;18.10;99.90;;;;;;4993711;28;20377;-75
2021/06/23 11:45:51;;;;;;;28.87;16.47;;;18.40;99.90;;;;;;4993678;28;20393;-74
2021/06/23 11:48:18;;;;;;;23.57;17.17;;;18.40;99.90;;;;;;4993904;28;20389;-76
2021/06/23 11:50:45;;;;;;;23.47;16.93;;;18.30;99.90;;;;;;4993680;28;20506;-75
2021/06/23 11:53:13;;;;;;;23.37;17.60;;;17.90;99.90;;;;;;4993446;28;20460;-76
2021/06/23 11:55:39;;;;;;;21.93;17.70;;;17.80;99.90;;;;;;4993692;28;20401;-75
2021/06/23 11:58:05;;;;;;;25.07;17.27;;;18.00;99.90;;;;;;4993547;28;20389;-76
2021/06/23 12:00:32;;;;;;;29.30;17.50;;;17.80;99.90;;;;;;4993247;28;20392;-75
2021/06/23 12:02:59;;;;;;;20.67;18.47;;;17.90;99.90;;;;;;4992929;28;20385;-76
2021/06/23 12:05:26;;;;;;;19.60;17.60;;;17.80;99.90;;;;;;4993510;28;20450;-76
2021/06/23 12:07:52;;;;;;;22.13;17.63;;;17.80;99.90;;;;;;4993653;28;20478;-76
2021/06/23 12:10:24;;;;;;;23.23;17.80;;;17.70;99.90;;;;;;4993531;28;20541;-76
2021/06/23 12:12:50;;;;;;;26.90;18.20;;;17.60;99.90;;;;;;4993340;28;20749;-76
2021/06/23 12:15:17;;;;;;;21.17;17.70;;;17.90;99.90;;;;;;4993437;28;20799;-75
2021/06/23 12:17:46;;;;;;;21.47;18.43;;;17.90;99.90;;;;;;4993667;28;20410;-76
2021/06/23 12:20:38;;;;;;;20.00;16.43;;;17.80;99.90;;;;;;4993763;28;20422;-75
2021/06/23 12:23:06;;;;;;;23.33;18.80;;;17.80;99.90;;;;;;4993357;28;20422;-75
2021/06/23 12:25:43;;;;;;;26.03;17.20;;;17.90;99.90;;;;;;4993525;28;20898;-76
2021/06/23 12:28:14;;;;;;;21.83;18.07;;;17.80;99.90;;;;;;4993488;28;20876;-75
2021/06/23 12:30:41;;;;;;;25.20;19.97;;;17.90;99.90;;;;;;4993621;28;20952;-75
2021/06/23 12:33:10;;;;;;;23.07;18.90;;;17.90;99.90;;;;;;4993213;28;20407;-74
2021/06/23 12:35:37;;;;;;;24.40;18.60;;;18.00;99.90;;;;;;4993415;28;20434;-75
2021/06/23 12:38:06;;;;;;;23.57;18.30;;;18.20;99.90;;;;;;4993411;28;20451;-75
2021/06/23 12:40:32;;;;;;;21.90;17.73;;;18.20;99.90;;;;;;4993363;28;20394;-75
2021/06/23 12:42:58;;;;;;;20.57;18.47;;;18.10;99.90;;;;;;4991914;28;20609;-75
2021/06/23 12:45:24;;;;;;;25.63;19.00;;;18.00;99.90;;;;;;4993510;28;20364;-75
2021/06/23 12:47:50;;;;;;;23.83;19.27;;;18.00;99.90;;;;;;4993202;28;20215;-75
2021/06/23 12:50:19;;;;;;;19.43;16.30;;;18.10;99.90;;;;;;4993323;28;20419;-75